createdAt,value
2017-07-05T00:01:36.049Z,17.00
2017-07-05T00:04:03.578Z,16.90
2017-07-05T00:06:31.891Z,16.90
2017-07-05T00:08:59.416Z,16.90
2017-07-05T00:11:27.718Z,17.20
2017-07-05T00:13:55.237Z,17.10
2017-07-05T00:16:23.562Z,16.90
2017-07-05T00:18:51.121Z,16.90
2017-07-05T00:21:18.645Z,16.90
2017-07-05T00:23:46.960Z,16.80
2017-07-05T00:26:14.487Z,16.80
2017-07-05T00:28:42.056Z,16.60
2017-07-05T00:31:09.591Z,16.60
2017-07-05T00:33:37.138Z,16.70
2017-07-05T00:36:04.653Z,16.70
2017-07-05T00:38:32.213Z,16.60
2017-07-05T00:40:59.756Z,16.70
2017-07-05T00:43:27.293Z,16.60
2017-07-05T00:45:54.829Z,16.60
2017-07-05T00:48:22.391Z,16.60
2017-07-05T00:50:49.934Z,16.60
2017-07-05T00:53:17.482Z,16.70
2017-07-05T00:55:44.997Z,16.90
2017-07-05T00:58:13.297Z,17.20
2017-07-05T01:00:40.932Z,17.20
2017-07-05T01:03:08.473Z,17.10
2017-07-05T01:05:36.009Z,17.20
2017-07-05T01:08:03.533Z,17.30
2017-07-05T01:10:31.089Z,16.90
2017-07-05T01:12:59.391Z,17.00
2017-07-05T01:15:26.955Z,16.90
2017-07-05T01:17:54.494Z,17.20
2017-07-05T01:20:22.047Z,17.40
2017-07-05T01:22:49.595Z,17.30
2017-07-05T01:25:17.153Z,17.50
2017-07-05T01:27:45.458Z,17.60
2017-07-05T01:30:13.005Z,17.60
2017-07-05T01:32:41.298Z,17.50
2017-07-05T01:35:08.823Z,17.50
2017-07-05T01:37:36.376Z,17.40
2017-07-05T01:40:03.897Z,17.40
2017-07-05T01:42:31.447Z,17.70
2017-07-05T01:44:58.983Z,17.60
2017-07-05T01:47:27.296Z,16.80
2017-07-05T01:49:54.819Z,16.80
2017-07-05T01:52:22.367Z,16.80
2017-07-05T01:54:50.645Z,17.50
2017-07-05T01:57:18.958Z,17.40
2017-07-05T01:59:46.509Z,17.40
2017-07-05T02:02:14.067Z,17.40
2017-07-05T02:04:41.599Z,17.30
2017-07-05T02:07:09.140Z,17.10
2017-07-05T02:09:36.691Z,16.70
2017-07-05T02:12:04.238Z,16.80
2017-07-05T02:14:31.763Z,16.90
2017-07-05T02:16:59.310Z,16.90
2017-07-05T02:19:27.624Z,16.60
2017-07-05T02:21:55.163Z,16.60
2017-07-05T02:24:22.700Z,16.50
2017-07-05T02:26:50.994Z,16.40
2017-07-05T02:29:19.311Z,16.30
2017-07-05T02:31:46.842Z,16.30
2017-07-05T02:34:14.387Z,16.10
2017-07-05T02:36:42.673Z,16.00
2017-07-05T02:39:10.209Z,16.00
2017-07-05T02:41:37.729Z,16.30
2017-07-05T02:44:05.277Z,16.60
2017-07-05T02:46:32.793Z,16.00
2017-07-05T02:49:01.177Z,16.20
2017-07-05T02:51:29.493Z,16.00
2017-07-05T02:53:57.042Z,16.00
2017-07-05T02:56:24.586Z,16.20
2017-07-05T02:58:52.130Z,16.70
2017-07-05T03:01:20.437Z,16.80
2017-07-05T03:03:47.958Z,16.80
2017-07-05T03:06:15.502Z,16.40
2017-07-05T03:08:43.018Z,16.10
2017-07-05T03:11:10.562Z,16.20
2017-07-05T03:13:38.874Z,16.20
2017-07-05T03:16:06.446Z,16.10
2017-07-05T03:18:33.974Z,16.10
2017-07-05T03:21:01.524Z,16.60
2017-07-05T03:23:29.040Z,16.80
2017-07-05T03:25:56.581Z,16.90
2017-07-05T03:28:24.113Z,17.00
2017-07-05T03:30:51.680Z,17.10
2017-07-05T03:33:19.219Z,16.80
2017-07-05T03:35:47.530Z,16.80
2017-07-05T03:38:15.072Z,16.80
2017-07-05T03:40:42.609Z,16.90
2017-07-05T03:43:10.913Z,16.50
2017-07-05T03:45:38.431Z,16.50
2017-07-05T03:48:05.982Z,16.60
2017-07-05T03:50:33.547Z,16.80
2017-07-05T03:53:01.223Z,16.90
2017-07-05T03:55:29.535Z,17.00
2017-07-05T03:57:57.069Z,16.90
2017-07-05T04:00:24.610Z,17.20
2017-07-05T04:02:52.169Z,17.60
2017-07-05T04:05:19.694Z,17.70
2017-07-05T04:07:47.225Z,17.50
2017-07-05T04:10:14.763Z,17.30
2017-07-05T04:12:42.314Z,17.20
2017-07-05T04:15:09.855Z,17.20
2017-07-05T04:17:37.410Z,17.60
2017-07-05T04:20:04.968Z,17.40
2017-07-05T04:22:32.502Z,17.50
2017-07-05T04:25:00.048Z,17.20
2017-07-05T04:27:27.587Z,17.10
2017-07-05T04:29:55.912Z,17.30
2017-07-05T04:32:23.430Z,17.30
2017-07-05T04:34:51.742Z,17.30
2017-07-05T04:37:19.270Z,17.20
2017-07-05T04:39:47.580Z,17.80
2017-07-05T04:42:15.095Z,17.80
2017-07-05T04:44:42.637Z,17.60
2017-07-05T04:47:10.169Z,17.50
2017-07-05T04:49:37.718Z,17.30
2017-07-05T04:52:05.244Z,17.00
2017-07-05T04:54:33.556Z,16.90
2017-07-05T04:57:01.175Z,16.90
2017-07-05T04:59:28.715Z,16.90
2017-07-05T05:01:56.280Z,17.00
2017-07-05T05:04:23.815Z,17.30
2017-07-05T05:06:51.357Z,17.10
2017-07-05T05:09:18.895Z,16.90
2017-07-05T05:11:46.444Z,17.10
2017-07-05T05:14:14.734Z,16.90
2017-07-05T05:16:42.278Z,16.90
2017-07-05T05:19:10.571Z,16.90
2017-07-05T05:21:38.118Z,16.90
2017-07-05T05:24:06.411Z,16.70
2017-07-05T05:26:33.964Z,16.70
2017-07-05T05:29:01.507Z,16.90
2017-07-05T05:34:02.897Z,16.40
2017-07-05T05:36:30.467Z,16.40
2017-07-05T05:38:57.994Z,16.30
2017-07-05T05:41:26.298Z,16.70
2017-07-05T05:43:53.852Z,16.70
2017-07-05T05:46:21.383Z,16.50
2017-07-05T05:48:49.717Z,16.50
2017-07-05T05:51:17.250Z,16.50
2017-07-05T05:53:44.785Z,16.70
2017-07-05T05:56:13.083Z,16.30
2017-07-05T05:58:41.391Z,16.40
2017-07-05T06:01:08.928Z,16.30
2017-07-05T06:03:36.488Z,16.50
2017-07-05T06:06:04.027Z,16.10
2017-07-05T06:08:32.344Z,16.00
2017-07-05T06:10:59.868Z,16.00
2017-07-05T06:13:28.199Z,15.80
2017-07-05T06:15:55.734Z,15.80
2017-07-05T06:18:23.258Z,15.80
2017-07-05T06:20:51.575Z,15.90
2017-07-05T06:23:19.126Z,15.90
2017-07-05T06:25:46.679Z,15.50
2017-07-05T06:28:14.193Z,15.30
2017-07-05T06:30:41.750Z,15.80
2017-07-05T06:33:09.282Z,15.60
2017-07-05T06:35:36.822Z,15.70
2017-07-05T06:38:04.358Z,15.80
2017-07-05T06:40:31.920Z,15.90
2017-07-05T06:43:00.223Z,15.60
2017-07-05T06:45:27.822Z,15.60
2017-07-05T06:47:55.363Z,15.50
2017-07-05T06:50:22.920Z,15.50
2017-07-05T06:52:50.437Z,15.50
2017-07-05T06:55:17.957Z,15.40
2017-07-05T06:57:45.500Z,15.40
2017-07-05T07:00:13.048Z,15.40
2017-07-05T07:02:40.581Z,15.60
2017-07-05T07:05:08.133Z,15.70
2017-07-05T07:07:35.665Z,15.60
2017-07-05T07:10:03.205Z,15.90
2017-07-05T07:12:30.754Z,16.00
2017-07-05T07:14:58.291Z,16.00
2017-07-05T07:17:25.851Z,15.80
2017-07-05T07:19:53.393Z,15.80
2017-07-05T07:22:20.954Z,15.90
2017-07-05T07:24:48.478Z,15.40
2017-07-05T07:27:16.048Z,15.40
2017-07-05T07:29:43.575Z,15.00
2017-07-05T07:32:11.125Z,15.50
2017-07-05T07:34:38.657Z,15.30
2017-07-05T07:37:06.181Z,15.20
2017-07-05T07:39:33.722Z,15.60
2017-07-05T07:42:01.256Z,15.70
2017-07-05T07:44:28.790Z,15.70
2017-07-05T07:46:56.324Z,15.90
2017-07-05T07:49:23.879Z,15.90
2017-07-05T07:51:51.422Z,16.00
2017-07-05T07:54:18.970Z,16.20
2017-07-05T07:56:46.523Z,16.30
2017-07-05T07:59:14.070Z,15.70
2017-07-05T08:01:41.606Z,15.20
2017-07-05T08:04:09.150Z,15.00
2017-07-05T08:06:36.665Z,14.90
2017-07-05T08:09:04.209Z,15.10
2017-07-05T08:11:31.756Z,15.70
2017-07-05T08:13:59.292Z,16.10
2017-07-05T08:16:26.829Z,16.20
2017-07-05T08:18:54.450Z,16.50
2017-07-05T08:21:22.008Z,16.70
2017-07-05T08:23:49.526Z,17.30
2017-07-05T08:26:17.080Z,17.20
2017-07-05T08:28:44.599Z,17.00
2017-07-05T08:31:12.157Z,16.30
2017-07-05T08:33:39.692Z,16.90
2017-07-05T08:36:07.235Z,17.20
2017-07-05T08:38:34.767Z,16.80
2017-07-05T08:41:02.315Z,16.50
2017-07-05T08:43:29.837Z,16.40
2017-07-05T08:45:57.362Z,17.00
2017-07-05T08:48:24.899Z,18.30
2017-07-05T08:50:52.420Z,16.90
2017-07-05T08:53:20.813Z,19.90
2017-07-05T08:55:48.348Z,19.90
2017-07-05T08:58:15.899Z,20.40
2017-07-05T09:00:43.426Z,18.20
2017-07-05T09:03:10.977Z,20.20
2017-07-05T09:05:38.523Z,20.30
2017-07-05T09:08:06.062Z,19.40
2017-07-05T09:10:33.587Z,19.90
2017-07-05T09:13:01.135Z,20.60
2017-07-05T09:15:28.658Z,22.30
2017-07-05T09:17:56.220Z,19.80
2017-07-05T09:20:23.803Z,20.90
2017-07-05T09:22:51.403Z,22.00
2017-07-05T09:25:18.935Z,22.30
2017-07-05T09:27:46.476Z,21.80
2017-07-05T09:30:14.011Z,21.10
2017-07-05T09:32:41.559Z,20.80
2017-07-05T09:35:09.867Z,21.80
2017-07-05T09:37:37.406Z,21.90
2017-07-05T09:40:05.718Z,19.20
2017-07-05T09:42:33.243Z,19.10
2017-07-05T09:45:00.800Z,18.70
2017-07-05T09:47:28.317Z,21.50
2017-07-05T09:49:55.861Z,22.10
2017-07-05T09:52:23.406Z,21.30
2017-07-05T09:54:50.951Z,20.60
2017-07-05T09:57:18.482Z,20.80
2017-07-05T09:59:46.041Z,20.90
2017-07-05T10:02:13.603Z,19.70
2017-07-05T10:04:41.141Z,20.50
2017-07-05T10:07:08.706Z,22.10
2017-07-05T10:09:36.260Z,22.00
2017-07-05T10:12:03.801Z,21.20
2017-07-05T10:14:31.368Z,21.70
2017-07-05T10:16:58.911Z,21.80
2017-07-05T10:19:26.468Z,21.30
2017-07-05T10:21:54.014Z,22.00
2017-07-05T10:24:21.533Z,21.00
2017-07-05T10:26:49.078Z,21.40
2017-07-05T10:29:16.605Z,21.10
2017-07-05T10:31:44.285Z,22.90
2017-07-05T10:34:11.806Z,23.50
2017-07-05T10:36:39.350Z,21.00
2017-07-05T10:39:06.873Z,21.70
2017-07-05T10:41:34.417Z,22.00
2017-07-05T10:44:01.955Z,22.20
2017-07-05T10:46:29.520Z,22.60
2017-07-05T10:48:57.085Z,21.90
2017-07-05T10:51:24.621Z,22.20
2017-07-05T10:53:52.163Z,22.60
2017-07-05T10:56:19.692Z,22.50
2017-07-05T10:58:47.247Z,21.90
2017-07-05T11:01:14.787Z,22.60
2017-07-05T11:03:42.324Z,22.90
2017-07-05T11:06:09.851Z,22.10
2017-07-05T11:08:37.401Z,23.50
2017-07-05T11:11:04.921Z,22.30
2017-07-05T11:13:32.498Z,22.80
2017-07-05T11:16:00.035Z,22.80
2017-07-05T11:18:27.583Z,22.40
2017-07-05T11:20:55.129Z,22.90
2017-07-05T11:23:22.687Z,21.90
2017-07-05T11:25:50.222Z,22.20
2017-07-05T11:28:17.747Z,21.60
2017-07-05T11:30:45.304Z,21.30
2017-07-05T11:33:12.835Z,21.40
2017-07-05T11:35:40.379Z,22.20
2017-07-05T11:38:07.898Z,21.90
2017-07-05T11:40:35.451Z,21.20
2017-07-05T11:43:03.010Z,21.90
2017-07-05T11:45:30.556Z,21.70
2017-07-05T11:47:58.141Z,21.70
2017-07-05T11:50:25.696Z,21.10
2017-07-05T11:52:54.005Z,21.10
2017-07-05T11:55:21.540Z,21.80
2017-07-05T11:57:49.065Z,22.60
2017-07-05T12:00:16.623Z,22.90
2017-07-05T12:02:44.187Z,22.10
2017-07-05T12:05:12.483Z,22.80
2017-07-05T12:07:40.037Z,22.80
2017-07-05T12:10:07.566Z,22.10
2017-07-05T12:12:35.124Z,22.10
2017-07-05T12:15:02.647Z,21.70
2017-07-05T12:17:30.199Z,21.10
2017-07-05T12:19:57.753Z,23.30
2017-07-05T12:22:25.310Z,22.60
2017-07-05T12:24:52.852Z,22.50
2017-07-05T12:27:20.418Z,22.20
2017-07-05T12:29:47.955Z,21.90
2017-07-05T12:32:15.519Z,21.50
2017-07-05T12:34:43.056Z,20.70
2017-07-05T12:37:10.621Z,20.90
2017-07-05T12:39:38.151Z,21.00
2017-07-05T12:42:05.687Z,21.20
2017-07-05T12:44:33.244Z,21.50
2017-07-05T12:47:00.774Z,21.40
2017-07-05T12:49:29.111Z,21.60
2017-07-05T12:51:56.647Z,21.60
2017-07-05T12:54:24.190Z,21.20
2017-07-05T12:56:51.727Z,21.80
2017-07-05T12:59:19.282Z,23.10
2017-07-05T13:01:46.812Z,22.60
2017-07-05T13:04:14.356Z,22.40
2017-07-05T13:06:41.902Z,22.70
2017-07-05T13:09:09.460Z,22.50
2017-07-05T13:11:37.005Z,21.70
2017-07-05T13:14:04.575Z,22.30
2017-07-05T13:16:32.106Z,21.90
2017-07-05T13:18:59.645Z,22.40
2017-07-05T13:21:27.203Z,22.20
2017-07-05T13:23:54.727Z,21.90
2017-07-05T13:26:22.284Z,22.40
2017-07-05T13:31:20.213Z,22.60
2017-07-05T13:33:47.780Z,22.70
2017-07-05T13:36:15.317Z,23.20
2017-07-05T13:38:42.853Z,23.10
2017-07-05T13:41:10.401Z,23.30
2017-07-05T13:43:39.076Z,22.20
2017-07-05T13:46:06.669Z,22.20
2017-07-05T13:48:34.213Z,22.30
2017-07-05T13:51:01.762Z,22.00
2017-07-05T13:53:30.046Z,22.10
2017-07-05T13:55:57.588Z,22.00
2017-07-05T13:58:25.147Z,22.30
2017-07-05T14:00:52.687Z,22.90
2017-07-05T14:03:20.238Z,22.30
2017-07-05T14:05:47.771Z,23.40
2017-07-05T14:08:16.450Z,23.90
2017-07-05T14:10:43.982Z,23.90
2017-07-05T14:13:11.544Z,22.70
2017-07-05T14:15:39.085Z,22.80
2017-07-05T14:18:06.655Z,22.40
2017-07-05T14:20:34.195Z,22.50
2017-07-05T14:23:01.739Z,23.60
2017-07-05T14:25:29.282Z,22.60
2017-07-05T14:27:56.948Z,22.50
2017-07-05T14:30:24.487Z,22.20
2017-07-05T14:32:52.034Z,23.10
2017-07-05T14:35:19.582Z,22.30
2017-07-05T14:37:47.124Z,22.60
2017-07-05T14:40:14.689Z,22.50
2017-07-05T14:42:42.222Z,22.10
2017-07-05T14:45:09.759Z,22.40
2017-07-05T14:47:37.294Z,22.50
2017-07-05T14:50:04.852Z,22.60
2017-07-05T14:52:32.450Z,22.90
2017-07-05T14:54:59.989Z,23.10
2017-07-05T14:57:27.523Z,22.70
2017-07-05T14:59:55.089Z,23.00
2017-07-05T15:02:22.657Z,22.90
2017-07-05T15:04:50.202Z,22.20
2017-07-05T15:07:17.764Z,22.30
2017-07-05T15:09:45.290Z,22.20
2017-07-05T15:12:12.837Z,22.50
2017-07-05T15:14:40.358Z,22.90
2017-07-05T15:17:08.930Z,22.90
2017-07-05T15:19:37.221Z,23.00
2017-07-05T15:22:04.794Z,23.00
2017-07-05T15:24:32.338Z,23.40
2017-07-05T15:26:59.894Z,23.30
2017-07-05T15:29:27.426Z,23.10
2017-07-05T15:31:54.992Z,22.40
2017-07-05T15:34:22.510Z,22.40
2017-07-05T15:36:50.054Z,22.40
2017-07-05T15:39:17.578Z,22.60
2017-07-05T15:41:45.192Z,22.70
2017-07-05T15:44:12.714Z,22.50
2017-07-05T15:46:41.009Z,22.90
2017-07-05T15:49:08.553Z,22.90
2017-07-05T15:51:36.073Z,22.50
2017-07-05T15:54:03.618Z,22.70
2017-07-05T15:56:31.141Z,22.10
2017-07-05T15:58:58.685Z,22.20
2017-07-05T16:01:26.203Z,22.50
2017-07-05T16:03:53.742Z,22.00
2017-07-05T16:06:21.280Z,22.70
2017-07-05T16:08:48.843Z,22.30
2017-07-05T16:11:16.389Z,22.20
2017-07-05T16:13:44.694Z,22.10
2017-07-05T16:16:12.235Z,22.10
2017-07-05T16:18:39.802Z,22.40
2017-07-05T16:21:07.368Z,22.20
2017-07-05T16:23:34.916Z,22.10
2017-07-05T16:26:02.463Z,22.30
2017-07-05T16:28:30.760Z,22.20
2017-07-05T16:30:58.311Z,22.20
2017-07-05T16:33:25.827Z,22.80
2017-07-05T16:35:53.378Z,22.50
2017-07-05T16:38:20.921Z,21.80
2017-07-05T16:40:48.472Z,21.70
2017-07-05T16:43:16.014Z,21.50
2017-07-05T16:45:43.573Z,21.40
2017-07-05T16:48:11.121Z,21.30
2017-07-05T16:50:38.661Z,21.60
2017-07-05T16:53:06.182Z,21.30
2017-07-05T16:55:33.769Z,21.50
2017-07-05T16:58:01.301Z,21.60
2017-07-05T17:00:28.864Z,21.80
2017-07-05T17:02:56.504Z,21.70
2017-07-05T17:05:24.045Z,21.50
2017-07-05T17:07:52.373Z,21.00
2017-07-05T17:10:19.911Z,20.90
2017-07-05T17:12:47.502Z,21.40
2017-07-05T17:15:15.038Z,21.50
2017-07-05T17:17:42.591Z,21.40
2017-07-05T17:20:10.125Z,21.60
2017-07-05T17:22:37.674Z,21.90
2017-07-05T17:25:05.212Z,21.70
2017-07-05T17:27:32.760Z,21.60
2017-07-05T17:30:00.286Z,21.70
2017-07-05T17:32:27.832Z,21.60
2017-07-05T17:34:55.370Z,21.80
2017-07-05T17:37:22.895Z,21.80
2017-07-05T17:39:50.434Z,21.60
2017-07-05T17:42:17.988Z,20.80
2017-07-05T17:44:45.544Z,21.00
2017-07-05T17:47:13.085Z,21.40
2017-07-05T17:49:41.402Z,21.40
2017-07-05T17:52:08.939Z,21.40
2017-07-05T17:54:36.495Z,21.50
2017-07-05T17:57:04.025Z,21.50
2017-07-05T17:59:31.575Z,21.40
2017-07-05T18:01:59.111Z,21.40
2017-07-05T18:04:26.648Z,21.00
2017-07-05T18:06:54.185Z,21.40
2017-07-05T18:09:21.746Z,21.30
2017-07-05T18:11:50.075Z,21.10
2017-07-05T18:14:17.626Z,21.10
2017-07-05T18:16:45.166Z,21.20
2017-07-05T18:19:12.739Z,21.10
2017-07-05T18:21:40.284Z,21.00
2017-07-05T18:24:07.832Z,20.80
2017-07-05T18:26:36.142Z,20.90
2017-07-05T18:29:03.666Z,20.90
2017-07-05T18:31:31.978Z,20.80
2017-07-05T18:33:59.502Z,20.70
2017-07-05T18:36:27.048Z,20.70
2017-07-05T18:38:54.583Z,20.40
2017-07-05T18:41:22.139Z,20.60
2017-07-05T18:43:49.677Z,20.60
2017-07-05T18:46:17.234Z,20.70
2017-07-05T18:48:44.763Z,20.30
2017-07-05T18:51:13.064Z,20.40
2017-07-05T18:53:40.621Z,20.40
2017-07-05T18:56:08.155Z,20.30
2017-07-05T18:58:36.461Z,20.40
2017-07-05T19:01:03.978Z,20.40
2017-07-05T19:03:31.518Z,20.30
2017-07-05T19:05:59.041Z,20.10
2017-07-05T19:08:26.580Z,20.20
2017-07-05T19:10:54.124Z,20.10
2017-07-05T19:13:22.453Z,20.30
2017-07-05T19:15:50.011Z,20.30
2017-07-05T19:18:17.574Z,20.30
2017-07-05T19:20:45.116Z,20.30
2017-07-05T19:23:12.680Z,20.30
2017-07-05T19:25:40.206Z,20.40
2017-07-05T19:28:07.779Z,20.10
2017-07-05T19:30:35.318Z,20.30
2017-07-05T19:33:02.851Z,20.20
2017-07-05T19:35:30.429Z,20.10
2017-07-05T19:37:57.969Z,19.80
2017-07-05T19:40:25.508Z,19.80
2017-07-05T19:42:53.036Z,19.80
2017-07-05T19:45:20.583Z,19.80
2017-07-05T19:47:48.128Z,19.60
2017-07-05T19:50:15.678Z,19.60
2017-07-05T19:52:43.201Z,19.40
2017-07-05T19:55:10.753Z,19.20
2017-07-05T19:57:38.318Z,19.40
2017-07-05T20:00:05.859Z,19.30
2017-07-05T20:02:33.379Z,19.50
2017-07-05T20:05:00.915Z,19.30
2017-07-05T20:07:28.512Z,19.00
2017-07-05T20:09:56.060Z,19.00
2017-07-05T20:12:23.625Z,18.90
2017-07-05T20:14:51.160Z,19.00
2017-07-05T20:17:18.722Z,19.10
2017-07-05T20:19:46.255Z,19.00
2017-07-05T20:22:13.807Z,18.90
2017-07-05T20:24:41.341Z,18.80
2017-07-05T20:27:08.888Z,19.00
2017-07-05T20:29:36.416Z,18.80
2017-07-05T20:32:03.965Z,19.00
2017-07-05T20:34:31.502Z,18.90
2017-07-05T20:36:59.046Z,18.80
2017-07-05T20:39:26.578Z,18.90
2017-07-05T20:41:54.143Z,18.90
2017-07-05T20:44:21.682Z,18.90
2017-07-05T20:46:49.250Z,18.90
2017-07-05T20:49:16.776Z,18.80
2017-07-05T20:51:44.384Z,18.80
2017-07-05T20:54:11.912Z,18.70
2017-07-05T20:56:39.443Z,18.60
2017-07-05T20:59:06.991Z,18.70
2017-07-05T21:01:34.529Z,18.60
2017-07-05T21:04:02.073Z,18.60
2017-07-05T21:06:29.594Z,18.70
2017-07-05T21:08:57.157Z,18.70
2017-07-05T21:11:24.682Z,18.80
2017-07-05T21:13:52.234Z,18.50
2017-07-05T21:16:19.757Z,18.30
2017-07-05T21:18:47.316Z,18.30
2017-07-05T21:21:14.846Z,18.30
2017-07-05T21:23:42.410Z,18.30
2017-07-05T21:26:09.967Z,18.50
2017-07-05T21:28:37.511Z,18.70
2017-07-05T21:31:05.034Z,18.60
2017-07-05T21:33:32.588Z,18.70
2017-07-05T21:36:00.126Z,18.30
2017-07-05T21:38:27.708Z,18.30
2017-07-05T21:40:55.246Z,18.20
2017-07-05T21:43:22.797Z,18.00
2017-07-05T21:45:50.313Z,18.10
2017-07-05T21:48:17.833Z,18.10
2017-07-05T21:50:45.385Z,17.90
2017-07-05T21:53:12.974Z,18.30
2017-07-05T21:55:40.535Z,18.30
2017-07-05T21:58:08.102Z,18.10
2017-07-05T22:00:35.651Z,17.80
2017-07-05T22:03:03.186Z,17.80
2017-07-05T22:05:30.735Z,17.70
2017-07-05T22:07:58.275Z,17.50
2017-07-05T22:10:25.829Z,17.50
2017-07-05T22:12:53.357Z,17.60
2017-07-05T22:15:20.896Z,17.70
2017-07-05T22:17:48.423Z,18.00
2017-07-05T22:20:15.967Z,17.80
2017-07-05T22:22:43.511Z,17.70
2017-07-05T22:25:11.044Z,17.60
2017-07-05T22:27:38.600Z,17.70
2017-07-05T22:30:06.137Z,17.50
2017-07-05T22:32:33.688Z,17.60
2017-07-05T22:35:01.209Z,17.40
2017-07-05T22:37:28.745Z,17.50
2017-07-05T22:39:56.291Z,17.60
2017-07-05T22:42:23.838Z,17.50
2017-07-05T22:44:51.378Z,17.40
2017-07-05T22:47:18.931Z,17.40
2017-07-05T22:49:46.491Z,17.50
2017-07-05T22:52:14.064Z,17.60
2017-07-05T22:54:42.368Z,17.60
2017-07-05T22:57:09.908Z,17.60
2017-07-05T22:59:37.447Z,17.70
2017-07-05T23:02:04.979Z,17.80
2017-07-05T23:04:32.540Z,17.60
2017-07-05T23:07:00.078Z,17.20
2017-07-05T23:09:27.629Z,17.40
2017-07-05T23:11:55.168Z,17.30
2017-07-05T23:14:22.714Z,17.20
2017-07-05T23:16:51.035Z,17.30
2017-07-05T23:19:18.569Z,17.30
2017-07-05T23:21:46.109Z,17.30
2017-07-05T23:24:14.428Z,17.40
2017-07-05T23:26:41.946Z,17.40
2017-07-05T23:29:10.274Z,17.60
2017-07-05T23:31:37.789Z,17.60
2017-07-05T23:34:05.335Z,17.60
2017-07-05T23:36:32.857Z,17.60
2017-07-05T23:39:00.391Z,17.60
2017-07-05T23:41:27.941Z,17.50
2017-07-05T23:43:55.471Z,17.30
2017-07-05T23:46:23.024Z,17.20
2017-07-05T23:48:50.562Z,17.40
2017-07-05T23:51:18.108Z,17.40
2017-07-05T23:53:45.636Z,17.60
2017-07-05T23:56:13.187Z,17.60
2017-07-05T23:58:40.773Z,17.90
